sensor_id;sensor_type;location;lat;lon;timestamp;P1;durP1;ratioP1;P2;durP2;ratioP2
7495;SDS011;3789;47.064;15.482;2023-02-16T00:01:59;65.93;;;32.73;;
7495;SDS011;3789;47.064;15.482;2023-02-16T00:04:30;69.17;;;33.27;;
7495;SDS011;3789;47.064;15.482;2023-02-16T00:06:57;73.67;;;36.13;;
7495;SDS011;3789;47.064;15.482;2023-02-16T00:09:29;66.57;;;34.30;;
7495;SDS011;3789;47.064;15.482;2023-02-16T00:12:04;66.70;;;35.83;;
7495;SDS011;3789;47.064;15.482;2023-02-16T00:15:15;73.03;;;36.33;;
7495;SDS011;3789;47.064;15.482;2023-02-16T00:17:45;65.67;;;34.10;;
7495;SDS011;3789;47.064;15.482;2023-02-16T00:20:15;69.57;;;35.77;;
7495;SDS011;3789;47.064;15.482;2023-02-16T00:22:49;75.17;;;36.57;;
7495;SDS011;3789;47.064;15.482;2023-02-16T00:25:23;60.43;;;29.83;;
7495;SDS011;3789;47.064;15.482;2023-02-16T00:27:54;74.07;;;36.37;;
7495;SDS011;3789;47.064;15.482;2023-02-16T00:30:24;59.10;;;34.20;;
7495;SDS011;3789;47.064;15.482;2023-02-16T00:33:04;75.47;;;38.07;;
7495;SDS011;3789;47.064;15.482;2023-02-16T00:35:42;67.23;;;33.40;;
7495;SDS011;3789;47.064;15.482;2023-02-16T00:38:13;86.37;;;39.23;;
7495;SDS011;3789;47.064;15.482;2023-02-16T00:40:46;96.83;;;45.33;;
7495;SDS011;3789;47.064;15.482;2023-02-16T00:43:24;91.83;;;42.97;;
7495;SDS011;3789;47.064;15.482;2023-02-16T00:45:54;90.50;;;42.27;;
7495;SDS011;3789;47.064;15.482;2023-02-16T00:48:27;85.60;;;40.30;;
7495;SDS011;3789;47.064;15.482;2023-02-16T00:50:54;91.87;;;42.53;;
7495;SDS011;3789;47.064;15.482;2023-02-16T00:53:22;93.97;;;44.47;;
7495;SDS011;3789;47.064;15.482;2023-02-16T00:55:51;78.03;;;37.53;;
7495;SDS011;3789;47.064;15.482;2023-02-16T00:58:25;73.30;;;34.07;;
7495;SDS011;3789;47.064;15.482;2023-02-16T01:01:02;75.70;;;34.73;;
7495;SDS011;3789;47.064;15.482;2023-02-16T01:03:37;79.33;;;36.67;;
7495;SDS011;3789;47.064;15.482;2023-02-16T01:06:08;80.63;;;36.43;;
7495;SDS011;3789;47.064;15.482;2023-02-16T01:09:30;79.07;;;33.97;;
7495;SDS011;3789;47.064;15.482;2023-02-16T01:12:13;88.33;;;42.23;;
7495;SDS011;3789;47.064;15.482;2023-02-16T01:14:53;83.47;;;39.37;;
7495;SDS011;3789;47.064;15.482;2023-02-16T01:17:23;91.17;;;39.07;;
7495;SDS011;3789;47.064;15.482;2023-02-16T01:19:52;89.13;;;40.43;;
7495;SDS011;3789;47.064;15.482;2023-02-16T01:22:21;97.10;;;40.43;;
7495;SDS011;3789;47.064;15.482;2023-02-16T01:24:51;76.20;;;37.77;;
7495;SDS011;3789;47.064;15.482;2023-02-16T01:27:19;89.30;;;37.40;;
7495;SDS011;3789;47.064;15.482;2023-02-16T01:29:48;77.57;;;35.93;;
7495;SDS011;3789;47.064;15.482;2023-02-16T01:32:17;84.20;;;35.03;;
7495;SDS011;3789;47.064;15.482;2023-02-16T01:34:47;70.30;;;31.67;;
7495;SDS011;3789;47.064;15.482;2023-02-16T01:37:17;90.73;;;40.27;;
7495;SDS011;3789;47.064;15.482;2023-02-16T01:39:48;90.70;;;40.17;;
7495;SDS011;3789;47.064;15.482;2023-02-16T01:45:08;79.67;;;38.37;;
7495;SDS011;3789;47.064;15.482;2023-02-16T01:47:51;78.67;;;37.70;;
7495;SDS011;3789;47.064;15.482;2023-02-16T01:50:23;86.73;;;40.83;;
7495;SDS011;3789;47.064;15.482;2023-02-16T01:53:05;86.10;;;41.03;;
7495;SDS011;3789;47.064;15.482;2023-02-16T01:55:47;89.07;;;41.23;;
7495;SDS011;3789;47.064;15.482;2023-02-16T01:58:35;79.83;;;40.77;;
7495;SDS011;3789;47.064;15.482;2023-02-16T02:04:20;76.00;;;37.00;;
7495;SDS011;3789;47.064;15.482;2023-02-16T02:07:25;75.17;;;36.10;;
7495;SDS011;3789;47.064;15.482;2023-02-16T02:13:59;72.00;;;35.07;;
7495;SDS011;3789;47.064;15.482;2023-02-16T02:16:18;76.23;;;34.90;;
7495;SDS011;3789;47.064;15.482;2023-02-16T02:18:55;77.70;;;38.07;;
7495;SDS011;3789;47.064;15.482;2023-02-16T02:27:56;65.67;;;31.00;;
7495;SDS011;3789;47.064;15.482;2023-02-16T02:30:45;66.27;;;34.53;;
7495;SDS011;3789;47.064;15.482;2023-02-16T02:33:47;63.50;;;31.23;;
7495;SDS011;3789;47.064;15.482;2023-02-16T02:36:50;59.60;;;30.90;;
7495;SDS011;3789;47.064;15.482;2023-02-16T02:39:51;74.10;;;36.27;;
7495;SDS011;3789;47.064;15.482;2023-02-16T02:43:00;74.13;;;34.87;;
7495;SDS011;3789;47.064;15.482;2023-02-16T02:45:51;72.17;;;33.03;;
7495;SDS011;3789;47.064;15.482;2023-02-16T02:48:32;65.73;;;32.60;;
7495;SDS011;3789;47.064;15.482;2023-02-16T02:51:11;71.57;;;35.67;;
7495;SDS011;3789;47.064;15.482;2023-02-16T03:00:37;77.93;;;35.80;;
7495;SDS011;3789;47.064;15.482;2023-02-16T03:06:01;53.10;;;29.13;;
7495;SDS011;3789;47.064;15.482;2023-02-16T03:08:38;49.23;;;27.87;;
7495;SDS011;3789;47.064;15.482;2023-02-16T03:11:23;45.80;;;24.67;;
7495;SDS011;3789;47.064;15.482;2023-02-16T03:14:23;38.23;;;22.17;;
7495;SDS011;3789;47.064;15.482;2023-02-16T03:17:20;34.63;;;21.60;;
7495;SDS011;3789;47.064;15.482;2023-02-16T03:20:12;37.23;;;21.10;;
7495;SDS011;3789;47.064;15.482;2023-02-16T03:23:01;44.73;;;22.13;;
7495;SDS011;3789;47.064;15.482;2023-02-16T03:25:51;39.87;;;21.77;;
7495;SDS011;3789;47.064;15.482;2023-02-16T03:28:40;43.13;;;22.77;;
7495;SDS011;3789;47.064;15.482;2023-02-16T03:31:31;42.50;;;24.23;;
7495;SDS011;3789;47.064;15.482;2023-02-16T03:34:06;38.03;;;22.23;;
7495;SDS011;3789;47.064;15.482;2023-02-16T03:36:42;37.03;;;21.43;;
7495;SDS011;3789;47.064;15.482;2023-02-16T03:39:19;41.80;;;20.87;;
7495;SDS011;3789;47.064;15.482;2023-02-16T03:41:52;38.37;;;21.67;;
7495;SDS011;3789;47.064;15.482;2023-02-16T03:44:23;36.87;;;21.57;;
7495;SDS011;3789;47.064;15.482;2023-02-16T03:47:01;39.20;;;21.23;;
7495;SDS011;3789;47.064;15.482;2023-02-16T03:49:30;35.83;;;20.17;;
7495;SDS011;3789;47.064;15.482;2023-02-16T03:51:57;36.80;;;20.13;;
7495;SDS011;3789;47.064;15.482;2023-02-16T03:54:25;39.83;;;20.93;;
7495;SDS011;3789;47.064;15.482;2023-02-16T03:56:53;30.67;;;19.77;;
7495;SDS011;3789;47.064;15.482;2023-02-16T03:59:23;32.03;;;18.43;;
7495;SDS011;3789;47.064;15.482;2023-02-16T04:01:52;36.30;;;19.70;;
7495;SDS011;3789;47.064;15.482;2023-02-16T04:04:30;32.40;;;19.27;;
7495;SDS011;3789;47.064;15.482;2023-02-16T04:06:58;33.20;;;19.27;;
7495;SDS011;3789;47.064;15.482;2023-02-16T04:09:30;34.63;;;19.87;;
7495;SDS011;3789;47.064;15.482;2023-02-16T04:11:58;34.53;;;19.73;;
7495;SDS011;3789;47.064;15.482;2023-02-16T04:14:46;33.63;;;19.23;;
7495;SDS011;3789;47.064;15.482;2023-02-16T04:17:20;29.77;;;18.97;;
7495;SDS011;3789;47.064;15.482;2023-02-16T04:19:51;48.97;;;19.67;;
7495;SDS011;3789;47.064;15.482;2023-02-16T04:22:18;50.20;;;23.63;;
7495;SDS011;3789;47.064;15.482;2023-02-16T04:24:50;45.90;;;22.97;;
7495;SDS011;3789;47.064;15.482;2023-02-16T04:27:18;37.90;;;21.33;;
7495;SDS011;3789;47.064;15.482;2023-02-16T04:29:46;32.50;;;17.93;;
7495;SDS011;3789;47.064;15.482;2023-02-16T04:32:14;29.97;;;17.23;;
7495;SDS011;3789;47.064;15.482;2023-02-16T04:34:42;30.00;;;16.37;;
7495;SDS011;3789;47.064;15.482;2023-02-16T04:37:10;30.87;;;14.77;;
7495;SDS011;3789;47.064;15.482;2023-02-16T04:39:38;25.90;;;15.27;;
7495;SDS011;3789;47.064;15.482;2023-02-16T04:42:06;30.00;;;16.37;;
7495;SDS011;3789;47.064;15.482;2023-02-16T04:44:35;27.43;;;14.20;;
7495;SDS011;3789;47.064;15.482;2023-02-16T04:47:04;29.10;;;16.40;;
7495;SDS011;3789;47.064;15.482;2023-02-16T04:49:35;26.07;;;13.77;;
7495;SDS011;3789;47.064;15.482;2023-02-16T04:52:04;20.90;;;13.60;;
7495;SDS011;3789;47.064;15.482;2023-02-16T04:54:33;30.10;;;15.47;;
7495;SDS011;3789;47.064;15.482;2023-02-16T04:57:01;32.30;;;17.77;;
7495;SDS011;3789;47.064;15.482;2023-02-16T04:59:37;25.53;;;15.30;;
7495;SDS011;3789;47.064;15.482;2023-02-16T05:02:06;28.60;;;15.03;;
7495;SDS011;3789;47.064;15.482;2023-02-16T05:04:35;25.47;;;14.17;;
7495;SDS011;3789;47.064;15.482;2023-02-16T05:07:04;24.17;;;13.47;;
7495;SDS011;3789;47.064;15.482;2023-02-16T05:09:33;20.17;;;12.40;;
7495;SDS011;3789;47.064;15.482;2023-02-16T05:12:05;20.00;;;13.00;;
7495;SDS011;3789;47.064;15.482;2023-02-16T05:14:51;21.43;;;12.77;;
7495;SDS011;3789;47.064;15.482;2023-02-16T05:17:24;26.07;;;14.27;;
7495;SDS011;3789;47.064;15.482;2023-02-16T05:19:59;22.97;;;14.03;;
7495;SDS011;3789;47.064;15.482;2023-02-16T05:22:29;23.83;;;14.80;;
7495;SDS011;3789;47.064;15.482;2023-02-16T05:25:05;25.60;;;14.57;;
7495;SDS011;3789;47.064;15.482;2023-02-16T05:27:36;32.43;;;19.87;;
7495;SDS011;3789;47.064;15.482;2023-02-16T05:30:05;30.53;;;17.47;;
7495;SDS011;3789;47.064;15.482;2023-02-16T05:32:36;30.53;;;18.53;;
7495;SDS011;3789;47.064;15.482;2023-02-16T05:35:05;34.83;;;18.30;;
7495;SDS011;3789;47.064;15.482;2023-02-16T05:37:32;34.20;;;19.43;;
7495;SDS011;3789;47.064;15.482;2023-02-16T05:40:01;25.53;;;18.17;;
7495;SDS011;3789;47.064;15.482;2023-02-16T05:42:31;21.67;;;15.20;;
7495;SDS011;3789;47.064;15.482;2023-02-16T05:44:59;28.20;;;15.50;;
7495;SDS011;3789;47.064;15.482;2023-02-16T05:47:29;25.10;;;16.10;;
7495;SDS011;3789;47.064;15.482;2023-02-16T05:50:06;30.33;;;16.43;;
7495;SDS011;3789;47.064;15.482;2023-02-16T05:52:37;37.00;;;20.60;;
7495;SDS011;3789;47.064;15.482;2023-02-16T05:55:13;42.07;;;21.27;;
7495;SDS011;3789;47.064;15.482;2023-02-16T05:57:43;38.43;;;21.40;;
7495;SDS011;3789;47.064;15.482;2023-02-16T06:00:11;39.83;;;22.27;;
7495;SDS011;3789;47.064;15.482;2023-02-16T06:02:42;45.60;;;24.17;;
7495;SDS011;3789;47.064;15.482;2023-02-16T06:05:11;64.67;;;31.07;;
7495;SDS011;3789;47.064;15.482;2023-02-16T06:07:40;59.73;;;30.87;;
7495;SDS011;3789;47.064;15.482;2023-02-16T06:10:17;67.27;;;32.97;;
7495;SDS011;3789;47.064;15.482;2023-02-16T06:12:46;50.90;;;26.00;;
7495;SDS011;3789;47.064;15.482;2023-02-16T06:15:15;54.57;;;29.10;;
7495;SDS011;3789;47.064;15.482;2023-02-16T06:17:44;60.47;;;29.93;;
7495;SDS011;3789;47.064;15.482;2023-02-16T06:20:13;60.93;;;33.40;;
7495;SDS011;3789;47.064;15.482;2023-02-16T06:22:41;63.70;;;33.23;;
7495;SDS011;3789;47.064;15.482;2023-02-16T06:25:10;65.23;;;31.83;;
7495;SDS011;3789;47.064;15.482;2023-02-16T06:27:41;61.93;;;31.87;;
7495;SDS011;3789;47.064;15.482;2023-02-16T06:30:08;60.97;;;29.90;;
7495;SDS011;3789;47.064;15.482;2023-02-16T06:32:49;66.40;;;32.43;;
7495;SDS011;3789;47.064;15.482;2023-02-16T06:35:26;63.83;;;34.07;;
7495;SDS011;3789;47.064;15.482;2023-02-16T06:37:57;62.63;;;32.63;;
7495;SDS011;3789;47.064;15.482;2023-02-16T06:40:32;62.20;;;34.23;;
7495;SDS011;3789;47.064;15.482;2023-02-16T06:42:59;62.73;;;31.73;;
7495;SDS011;3789;47.064;15.482;2023-02-16T06:45:29;59.17;;;31.40;;
7495;SDS011;3789;47.064;15.482;2023-02-16T06:47:59;56.17;;;31.63;;
7495;SDS011;3789;47.064;15.482;2023-02-16T06:50:36;54.47;;;31.53;;
7495;SDS011;3789;47.064;15.482;2023-02-16T06:53:05;52.83;;;28.80;;
7495;SDS011;3789;47.064;15.482;2023-02-16T06:55:34;48.43;;;25.93;;
7495;SDS011;3789;47.064;15.482;2023-02-16T06:58:04;51.30;;;28.03;;
7495;SDS011;3789;47.064;15.482;2023-02-16T07:00:36;59.83;;;31.87;;
7495;SDS011;3789;47.064;15.482;2023-02-16T07:03:13;57.90;;;30.47;;
7495;SDS011;3789;47.064;15.482;2023-02-16T07:05:42;53.57;;;31.30;;
7495;SDS011;3789;47.064;15.482;2023-02-16T07:08:12;50.67;;;30.17;;
7495;SDS011;3789;47.064;15.482;2023-02-16T07:10:45;54.00;;;29.70;;
7495;SDS011;3789;47.064;15.482;2023-02-16T07:13:18;50.63;;;28.77;;
7495;SDS011;3789;47.064;15.482;2023-02-16T07:15:47;46.03;;;27.33;;
7495;SDS011;3789;47.064;15.482;2023-02-16T07:18:17;47.67;;;27.93;;
7495;SDS011;3789;47.064;15.482;2023-02-16T07:20:46;48.70;;;28.10;;
7495;SDS011;3789;47.064;15.482;2023-02-16T07:23:14;41.57;;;25.63;;
7495;SDS011;3789;47.064;15.482;2023-02-16T07:25:44;42.93;;;25.87;;
7495;SDS011;3789;47.064;15.482;2023-02-16T07:28:13;46.47;;;26.57;;
7495;SDS011;3789;47.064;15.482;2023-02-16T07:30:43;42.13;;;24.47;;
7495;SDS011;3789;47.064;15.482;2023-02-16T07:33:16;40.33;;;24.43;;
7495;SDS011;3789;47.064;15.482;2023-02-16T07:35:45;37.33;;;23.60;;
7495;SDS011;3789;47.064;15.482;2023-02-16T07:38:15;39.00;;;23.87;;
7495;SDS011;3789;47.064;15.482;2023-02-16T07:40:43;38.83;;;23.20;;
7495;SDS011;3789;47.064;15.482;2023-02-16T07:43:19;38.63;;;24.90;;
7495;SDS011;3789;47.064;15.482;2023-02-16T07:45:47;41.60;;;23.60;;
7495;SDS011;3789;47.064;15.482;2023-02-16T07:48:18;41.07;;;26.93;;
7495;SDS011;3789;47.064;15.482;2023-02-16T07:50:54;54.90;;;32.30;;
7495;SDS011;3789;47.064;15.482;2023-02-16T07:53:33;52.03;;;32.00;;
7495;SDS011;3789;47.064;15.482;2023-02-16T07:56:03;49.03;;;29.77;;
7495;SDS011;3789;47.064;15.482;2023-02-16T07:58:32;49.77;;;31.40;;
7495;SDS011;3789;47.064;15.482;2023-02-16T08:01:09;50.43;;;31.30;;
7495;SDS011;3789;47.064;15.482;2023-02-16T08:03:42;64.13;;;39.20;;
7495;SDS011;3789;47.064;15.482;2023-02-16T08:06:11;54.87;;;32.03;;
7495;SDS011;3789;47.064;15.482;2023-02-16T08:08:42;44.27;;;26.40;;
7495;SDS011;3789;47.064;15.482;2023-02-16T08:11:15;46.67;;;27.77;;
7495;SDS011;3789;47.064;15.482;2023-02-16T08:13:48;38.27;;;24.77;;
7495;SDS011;3789;47.064;15.482;2023-02-16T08:16:27;38.53;;;24.40;;
7495;SDS011;3789;47.064;15.482;2023-02-16T08:18:57;35.10;;;23.87;;
7495;SDS011;3789;47.064;15.482;2023-02-16T08:21:41;41.13;;;24.87;;
7495;SDS011;3789;47.064;15.482;2023-02-16T08:24:15;36.33;;;24.47;;
7495;SDS011;3789;47.064;15.482;2023-02-16T08:26:46;40.00;;;26.57;;
7495;SDS011;3789;47.064;15.482;2023-02-16T08:29:24;40.43;;;26.73;;
7495;SDS011;3789;47.064;15.482;2023-02-16T08:31:54;34.80;;;24.63;;
7495;SDS011;3789;47.064;15.482;2023-02-16T08:34:24;37.20;;;23.70;;
7495;SDS011;3789;47.064;15.482;2023-02-16T08:36:56;25.00;;;18.30;;
7495;SDS011;3789;47.064;15.482;2023-02-16T08:39:25;26.60;;;18.00;;
7495;SDS011;3789;47.064;15.482;2023-02-16T08:41:56;31.43;;;19.70;;
7495;SDS011;3789;47.064;15.482;2023-02-16T08:44:29;32.47;;;20.20;;
7495;SDS011;3789;47.064;15.482;2023-02-16T08:46:58;34.13;;;21.10;;
7495;SDS011;3789;47.064;15.482;2023-02-16T08:49:26;32.70;;;21.83;;
7495;SDS011;3789;47.064;15.482;2023-02-16T08:51:57;30.33;;;20.93;;
7495;SDS011;3789;47.064;15.482;2023-02-16T08:54:28;28.03;;;19.90;;
7495;SDS011;3789;47.064;15.482;2023-02-16T08:57:00;32.70;;;21.17;;
7495;SDS011;3789;47.064;15.482;2023-02-16T08:59:37;31.43;;;21.47;;
7495;SDS011;3789;47.064;15.482;2023-02-16T09:02:05;29.63;;;20.40;;
7495;SDS011;3789;47.064;15.482;2023-02-16T09:04:43;28.63;;;20.03;;
7495;SDS011;3789;47.064;15.482;2023-02-16T09:07:18;26.50;;;19.33;;
7495;SDS011;3789;47.064;15.482;2023-02-16T09:09:48;31.17;;;19.87;;
7495;SDS011;3789;47.064;15.482;2023-02-16T09:12:16;26.43;;;18.57;;
7495;SDS011;3789;47.064;15.482;2023-02-16T09:14:46;29.30;;;18.73;;
7495;SDS011;3789;47.064;15.482;2023-02-16T09:17:16;27.20;;;17.63;;
7495;SDS011;3789;47.064;15.482;2023-02-16T09:19:44;27.17;;;18.13;;
7495;SDS011;3789;47.064;15.482;2023-02-16T09:22:14;24.17;;;18.00;;
7495;SDS011;3789;47.064;15.482;2023-02-16T09:24:45;23.87;;;16.13;;
7495;SDS011;3789;47.064;15.482;2023-02-16T09:27:14;26.97;;;17.80;;
7495;SDS011;3789;47.064;15.482;2023-02-16T09:29:44;27.40;;;18.77;;
7495;SDS011;3789;47.064;15.482;2023-02-16T09:32:20;29.73;;;18.60;;
7495;SDS011;3789;47.064;15.482;2023-02-16T09:34:50;27.13;;;18.17;;
7495;SDS011;3789;47.064;15.482;2023-02-16T09:37:21;26.53;;;19.10;;
7495;SDS011;3789;47.064;15.482;2023-02-16T09:39:56;30.57;;;17.57;;
7495;SDS011;3789;47.064;15.482;2023-02-16T09:42:47;25.05;;;19.42;;
7495;SDS011;3789;47.064;15.482;2023-02-16T09:45:44;28.57;;;18.33;;
7495;SDS011;3789;47.064;15.482;2023-02-16T09:48:27;27.93;;;17.50;;
7495;SDS011;3789;47.064;15.482;2023-02-16T09:51:19;26.57;;;18.60;;
7495;SDS011;3789;47.064;15.482;2023-02-16T09:54:13;30.67;;;20.30;;
7495;SDS011;3789;47.064;15.482;2023-02-16T09:57:18;27.00;;;18.43;;
7495;SDS011;3789;47.064;15.482;2023-02-16T10:00:25;27.27;;;20.55;;
7495;SDS011;3789;47.064;15.482;2023-02-16T10:06:26;29.83;;;18.73;;
7495;SDS011;3789;47.064;15.482;2023-02-16T10:09:14;27.33;;;19.57;;
7495;SDS011;3789;47.064;15.482;2023-02-16T10:11:51;30.63;;;18.60;;
7495;SDS011;3789;47.064;15.482;2023-02-16T10:14:47;25.37;;;19.10;;
7495;SDS011;3789;47.064;15.482;2023-02-16T10:20:26;25.87;;;18.77;;
7495;SDS011;3789;47.064;15.482;2023-02-16T10:23:10;29.30;;;18.33;;
7495;SDS011;3789;47.064;15.482;2023-02-16T10:25:52;28.53;;;18.03;;
7495;SDS011;3789;47.064;15.482;2023-02-16T10:28:35;21.77;;;16.20;;
7495;SDS011;3789;47.064;15.482;2023-02-16T10:31:26;24.50;;;18.67;;
7495;SDS011;3789;47.064;15.482;2023-02-16T10:34:19;22.80;;;16.70;;
7495;SDS011;3789;47.064;15.482;2023-02-16T10:40:03;26.90;;;18.77;;
7495;SDS011;3789;47.064;15.482;2023-02-16T10:43:20;18.67;;;14.67;;
7495;SDS011;3789;47.064;15.482;2023-02-16T10:45:56;22.87;;;17.10;;
7495;SDS011;3789;47.064;15.482;2023-02-16T10:48:31;20.50;;;14.80;;
7495;SDS011;3789;47.064;15.482;2023-02-16T10:51:07;25.13;;;18.10;;
7495;SDS011;3789;47.064;15.482;2023-02-16T10:53:49;23.73;;;17.13;;
7495;SDS011;3789;47.064;15.482;2023-02-16T10:59:40;23.17;;;16.57;;
7495;SDS011;3789;47.064;15.482;2023-02-16T11:02:16;23.97;;;16.83;;
7495;SDS011;3789;47.064;15.482;2023-02-16T11:04:53;22.73;;;15.87;;
7495;SDS011;3789;47.064;15.482;2023-02-16T11:07:24;17.83;;;14.60;;
7495;SDS011;3789;47.064;15.482;2023-02-16T11:09:57;17.60;;;13.33;;
7495;SDS011;3789;47.064;15.482;2023-02-16T11:23:23;20.30;;;13.83;;
7495;SDS011;3789;47.064;15.482;2023-02-16T11:26:24;16.10;;;13.23;;
7495;SDS011;3789;47.064;15.482;2023-02-16T11:29:01;22.47;;;15.20;;
7495;SDS011;3789;47.064;15.482;2023-02-16T11:31:51;19.63;;;14.50;;
7495;SDS011;3789;47.064;15.482;2023-02-16T11:34:38;17.67;;;12.87;;
7495;SDS011;3789;47.064;15.482;2023-02-16T11:37:25;13.43;;;10.40;;
7495;SDS011;3789;47.064;15.482;2023-02-16T11:40:02;17.67;;;13.73;;
7495;SDS011;3789;47.064;15.482;2023-02-16T11:42:39;15.73;;;12.67;;
7495;SDS011;3789;47.064;15.482;2023-02-16T11:45:31;14.63;;;11.47;;
7495;SDS011;3789;47.064;15.482;2023-02-16T11:48:12;19.07;;;14.50;;
7495;SDS011;3789;47.064;15.482;2023-02-16T11:50:56;20.43;;;15.00;;
7495;SDS011;3789;47.064;15.482;2023-02-16T11:53:36;21.63;;;16.07;;
7495;SDS011;3789;47.064;15.482;2023-02-16T11:56:21;19.17;;;13.93;;
7495;SDS011;3789;47.064;15.482;2023-02-16T11:59:15;16.67;;;13.47;;
7495;SDS011;3789;47.064;15.482;2023-02-16T12:08:20;16.53;;;11.40;;
7495;SDS011;3789;47.064;15.482;2023-02-16T12:19:43;16.43;;;11.43;;
7495;SDS011;3789;47.064;15.482;2023-02-16T12:37:24;14.77;;;11.53;;
7495;SDS011;3789;47.064;15.482;2023-02-16T12:46:08;14.53;;;10.20;;
7495;SDS011;3789;47.064;15.482;2023-02-16T12:48:58;16.67;;;9.63;;
7495;SDS011;3789;47.064;15.482;2023-02-16T12:52:02;14.87;;;9.70;;
7495;SDS011;3789;47.064;15.482;2023-02-16T12:57:40;12.33;;;9.60;;
7495;SDS011;3789;47.064;15.482;2023-02-16T13:00:23;11.87;;;9.30;;
7495;SDS011;3789;47.064;15.482;2023-02-16T13:03:23;13.87;;;10.03;;
7495;SDS011;3789;47.064;15.482;2023-02-16T13:07:06;12.90;;;9.03;;
7495;SDS011;3789;47.064;15.482;2023-02-16T13:10:02;10.70;;;9.23;;
7495;SDS011;3789;47.064;15.482;2023-02-16T13:12:55;12.07;;;9.40;;
7495;SDS011;3789;47.064;15.482;2023-02-16T13:15:40;12.70;;;9.23;;
7495;SDS011;3789;47.064;15.482;2023-02-16T13:18:35;16.13;;;9.30;;
7495;SDS011;3789;47.064;15.482;2023-02-16T13:24:03;15.07;;;9.80;;
7495;SDS011;3789;47.064;15.482;2023-02-16T13:39:21;12.40;;;8.40;;
7495;SDS011;3789;47.064;15.482;2023-02-16T13:45:03;11.63;;;8.27;;
7495;SDS011;3789;47.064;15.482;2023-02-16T13:47:47;11.13;;;9.17;;
7495;SDS011;3789;47.064;15.482;2023-02-16T13:50:24;11.53;;;7.60;;
7495;SDS011;3789;47.064;15.482;2023-02-16T13:56:40;12.33;;;7.53;;
7495;SDS011;3789;47.064;15.482;2023-02-16T13:58:54;8.83;;;6.97;;
7495;SDS011;3789;47.064;15.482;2023-02-16T14:01:51;10.83;;;7.30;;
7495;SDS011;3789;47.064;15.482;2023-02-16T14:09:46;11.57;;;7.80;;
7495;SDS011;3789;47.064;15.482;2023-02-16T14:12:28;10.40;;;7.37;;
7495;SDS011;3789;47.064;15.482;2023-02-16T14:15:15;9.30;;;7.13;;
7495;SDS011;3789;47.064;15.482;2023-02-16T14:17:46;10.77;;;7.33;;
7495;SDS011;3789;47.064;15.482;2023-02-16T14:22:50;7.43;;;5.47;;
7495;SDS011;3789;47.064;15.482;2023-02-16T14:28:00;9.93;;;7.27;;
7495;SDS011;3789;47.064;15.482;2023-02-16T14:30:52;7.90;;;6.33;;
7495;SDS011;3789;47.064;15.482;2023-02-16T14:33:59;9.87;;;7.37;;
7495;SDS011;3789;47.064;15.482;2023-02-16T14:39:44;7.77;;;6.47;;
7495;SDS011;3789;47.064;15.482;2023-02-16T14:42:34;9.20;;;6.87;;
7495;SDS011;3789;47.064;15.482;2023-02-16T14:57:27;7.53;;;5.40;;
7495;SDS011;3789;47.064;15.482;2023-02-16T15:03:22;9.97;;;5.50;;
7495;SDS011;3789;47.064;15.482;2023-02-16T15:05:59;7.47;;;4.80;;
7495;SDS011;3789;47.064;15.482;2023-02-16T15:08:36;5.50;;;4.80;;
7495;SDS011;3789;47.064;15.482;2023-02-16T15:14:53;7.07;;;5.07;;
7495;SDS011;3789;47.064;15.482;2023-02-16T15:17:37;6.37;;;5.00;;
7495;SDS011;3789;47.064;15.482;2023-02-16T15:20:23;7.27;;;5.30;;
7495;SDS011;3789;47.064;15.482;2023-02-16T15:22:56;5.60;;;4.80;;
7495;SDS011;3789;47.064;15.482;2023-02-16T15:25:36;6.90;;;4.87;;
7495;SDS011;3789;47.064;15.482;2023-02-16T15:28:37;5.63;;;4.80;;
7495;SDS011;3789;47.064;15.482;2023-02-16T15:31:11;7.60;;;5.00;;
7495;SDS011;3789;47.064;15.482;2023-02-16T15:33:56;9.47;;;5.67;;
7495;SDS011;3789;47.064;15.482;2023-02-16T15:36:42;8.67;;;6.27;;
7495;SDS011;3789;47.064;15.482;2023-02-16T15:39:13;8.87;;;5.63;;
7495;SDS011;3789;47.064;15.482;2023-02-16T15:42:20;10.23;;;5.47;;
7495;SDS011;3789;47.064;15.482;2023-02-16T15:44:52;9.03;;;6.20;;
7495;SDS011;3789;47.064;15.482;2023-02-16T15:47:23;10.73;;;7.40;;
7495;SDS011;3789;47.064;15.482;2023-02-16T15:49:54;10.37;;;6.13;;
7495;SDS011;3789;47.064;15.482;2023-02-16T15:52:35;6.27;;;5.30;;
7495;SDS011;3789;47.064;15.482;2023-02-16T15:55:11;9.13;;;6.10;;
7495;SDS011;3789;47.064;15.482;2023-02-16T15:57:48;10.00;;;5.83;;
7495;SDS011;3789;47.064;15.482;2023-02-16T16:00:27;7.70;;;6.00;;
7495;SDS011;3789;47.064;15.482;2023-02-16T16:02:56;11.87;;;7.33;;
7495;SDS011;3789;47.064;15.482;2023-02-16T16:05:30;8.13;;;6.53;;
7495;SDS011;3789;47.064;15.482;2023-02-16T16:08:14;8.40;;;6.03;;
7495;SDS011;3789;47.064;15.482;2023-02-16T16:10:55;7.57;;;5.87;;
7495;SDS011;3789;47.064;15.482;2023-02-16T16:13:26;9.90;;;5.80;;
7495;SDS011;3789;47.064;15.482;2023-02-16T16:16:00;10.73;;;6.50;;
7495;SDS011;3789;47.064;15.482;2023-02-16T16:21:22;7.60;;;6.00;;
7495;SDS011;3789;47.064;15.482;2023-02-16T16:24:26;8.53;;;6.40;;
7495;SDS011;3789;47.064;15.482;2023-02-16T16:27:26;12.67;;;6.70;;
7495;SDS011;3789;47.064;15.482;2023-02-16T16:33:05;10.37;;;6.60;;
7495;SDS011;3789;47.064;15.482;2023-02-16T16:35:43;10.10;;;7.80;;
7495;SDS011;3789;47.064;15.482;2023-02-16T16:41:05;13.03;;;8.43;;
7495;SDS011;3789;47.064;15.482;2023-02-16T16:43:54;13.67;;;9.53;;
7495;SDS011;3789;47.064;15.482;2023-02-16T16:46:31;17.37;;;11.33;;
7495;SDS011;3789;47.064;15.482;2023-02-16T16:48:59;20.50;;;11.23;;
7495;SDS011;3789;47.064;15.482;2023-02-16T16:54:02;22.37;;;11.83;;
7495;SDS011;3789;47.064;15.482;2023-02-16T16:56:41;17.60;;;9.60;;
7495;SDS011;3789;47.064;15.482;2023-02-16T16:59:11;11.40;;;7.83;;
7495;SDS011;3789;47.064;15.482;2023-02-16T17:01:40;10.57;;;7.27;;
7495;SDS011;3789;47.064;15.482;2023-02-16T17:04:11;9.10;;;6.57;;
7495;SDS011;3789;47.064;15.482;2023-02-16T17:06:41;7.23;;;6.13;;
7495;SDS011;3789;47.064;15.482;2023-02-16T17:09:13;8.63;;;6.40;;
7495;SDS011;3789;47.064;15.482;2023-02-16T17:11:42;9.80;;;7.30;;
7495;SDS011;3789;47.064;15.482;2023-02-16T17:14:14;11.00;;;7.17;;
7495;SDS011;3789;47.064;15.482;2023-02-16T17:16:46;11.23;;;7.90;;
7495;SDS011;3789;47.064;15.482;2023-02-16T17:19:16;9.27;;;6.80;;
7495;SDS011;3789;47.064;15.482;2023-02-16T17:21:49;9.00;;;7.37;;
7495;SDS011;3789;47.064;15.482;2023-02-16T17:24:16;10.10;;;8.47;;
7495;SDS011;3789;47.064;15.482;2023-02-16T17:26:43;13.57;;;7.77;;
7495;SDS011;3789;47.064;15.482;2023-02-16T17:29:12;14.13;;;7.90;;
7495;SDS011;3789;47.064;15.482;2023-02-16T17:31:40;11.27;;;8.13;;
7495;SDS011;3789;47.064;15.482;2023-02-16T17:34:07;12.23;;;7.23;;
7495;SDS011;3789;47.064;15.482;2023-02-16T17:36:40;10.30;;;6.97;;
7495;SDS011;3789;47.064;15.482;2023-02-16T17:39:09;10.80;;;7.73;;
7495;SDS011;3789;47.064;15.482;2023-02-16T17:41:39;12.20;;;8.67;;
7495;SDS011;3789;47.064;15.482;2023-02-16T17:44:07;12.20;;;7.87;;
7495;SDS011;3789;47.064;15.482;2023-02-16T17:46:38;13.90;;;8.97;;
7495;SDS011;3789;47.064;15.482;2023-02-16T17:49:09;10.77;;;7.77;;
7495;SDS011;3789;47.064;15.482;2023-02-16T17:51:39;14.37;;;8.20;;
7495;SDS011;3789;47.064;15.482;2023-02-16T17:54:08;13.17;;;9.73;;
7495;SDS011;3789;47.064;15.482;2023-02-16T17:56:37;11.50;;;9.30;;
7495;SDS011;3789;47.064;15.482;2023-02-16T17:59:07;10.67;;;8.23;;
7495;SDS011;3789;47.064;15.482;2023-02-16T18:01:41;15.10;;;9.00;;
7495;SDS011;3789;47.064;15.482;2023-02-16T18:04:17;12.50;;;9.40;;
7495;SDS011;3789;47.064;15.482;2023-02-16T18:06:47;15.97;;;9.97;;
7495;SDS011;3789;47.064;15.482;2023-02-16T18:09:15;24.90;;;14.77;;